Flight Track Log - Related Links

Times and Time Zones

All times are in EDT time to prevent confusion due to time zone crossing. See the SWA134 flight status page for this flight to view local times or setup timezone preferences in your user account.

Time Position Orientation Groundspeed Altitude Reporting Facility
EDT Latitude Longitude Course Direction KTS MPH feet Rate Location/Type
Mon 09:03:16 PM 39.1167 -76.6833 297° West 216 249 2,900  Level Potomac TRACON
Mon 09:04:16 PM 39.1500 -76.7667 297° West 266 306 5,300 3,050 Climbing Potomac TRACON
Mon 09:05:16 PM 39.1833 -76.8667 293° West 305 351 9,000 3,800 Climbing Potomac TRACON
Mon 09:06:16 PM 39.2167 -76.9667 293° West 319 367 12,900 3,120 Climbing Potomac TRACON
Mon 09:08:36 PM 39.1603 -77.2539 256° West 349 402 19,400 2,746 Climbing Washington Center
Mon 09:09:37 PM 39.1189 -77.3842 248° West 371 427 22,100 2,607 Climbing Washington Center
Mon 09:10:38 PM 39.0772 -77.5194 248° West 397 457 24,700 2,331 Climbing Washington Center
Mon 09:11:38 PM 39.0311 -77.6572 247° West 417 480 26,800 1,934 Climbing Washington Center
Mon 09:12:39 PM 38.9914 -77.7869 249° West 434 499 28,600 1,709 Climbing Washington Center
Mon 09:14:00 PM 38.9893 -77.9804 254° West  Level Estimated
Mon 09:14:37 PM 38.8939 -78.0881 254° West 453 521 31,900  Level Washington Center
Mon 09:15:38 PM 38.8550 -78.2439 252° West 458 527 34,100 2,033 Climbing Washington Center
Mon 09:16:38 PM 38.8511 -78.4092 268° West 458 527 36,000 1,780 Climbing Washington Center
Mon 09:17:36 PM 38.8514 -78.5719 270° West 458 527 37,600 1,008 Climbing Washington Center
Mon 09:18:37 PM 38.8494 -78.7369 269° West 458 527 38,000 984 Climbing Washington Center
Mon 09:19:38 PM 38.8472 -78.8969 269° West 458 527 39,600 667 Climbing Washington Center
Mon 09:21:37 PM 38.8422 -79.2139 269° West 458 527 40,000 134 Climbing Washington Center
Mon 09:22:37 PM 38.8417 -79.3683 270° West 453 521 40,000  Level Washington Center
Mon 09:23:38 PM 38.8367 -79.5253 268° West 453 521 40,000  Level Washington Center
Mon 09:25:00 PM 38.8317 -79.6803 268° West  Level FlightAware Approximate
Mon 09:27:02 PM 38.8206 -80.0772 267° West 444 511 40,000  Level Indianapolis Center
Mon 09:28:03 PM 38.8167 -80.2375 268° West 448 516 40,000  Level Indianapolis Center
Mon 09:29:04 PM 38.8111 -80.3989 268° West 452 520 40,000  Level Indianapolis Center
Mon 09:30:06 PM 38.8078 -80.5589 269° West 449 517 40,000  Level Indianapolis Center
Mon 09:31:07 PM 38.8025 -80.7194 268° West 451 519 40,000  Level Indianapolis Center
Mon 09:32:00 PM 38.7936 -80.7136 267° West  Level FlightAware Approximate
Mon 09:32:09 PM 38.7981 -80.8806 268° West 453 521 40,000  Level Indianapolis Center
Mon 09:34:11 PM 38.7853 -81.2342 267° West 454 522 40,000  Level Indianapolis Center
Mon 09:36:14 PM 38.7750 -81.5453 268° West 461 531 40,000  Level Indianapolis Center
Mon 09:37:15 PM 38.7678 -81.7103 267° West 458 527 40,000  Level Indianapolis Center
Mon 09:38:17 PM 38.7608 -81.8736 267° West 461 531 40,000  Level Indianapolis Center
Mon 09:39:18 PM 38.7536 -82.0364 267° West 459 528 40,000  Level Indianapolis Center
Mon 09:41:21 PM 38.7408 -82.3997 268° West 466 536 40,000  Level Indianapolis Center
Mon 09:42:22 PM 38.7339 -82.5653 267° West 466 536 40,000  Level Indianapolis Center
Mon 09:43:24 PM 38.7267 -82.7306 267° West 465 535 40,000  Level Indianapolis Center
Mon 09:44:25 PM 38.7192 -82.8964 267° West 465 535 40,000  Level Indianapolis Center
Mon 09:45:26 PM 38.7119 -83.0625 267° West 467 537 40,000  Level Indianapolis Center
Mon 09:46:27 PM 38.7047 -83.2281 267° West 467 537 40,000  Level Indianapolis Center
Mon 09:47:29 PM 38.6969 -83.3969 267° West 469 540 40,000  Level Indianapolis Center
Mon 09:49:00 PM 38.6818 -83.6220 265° West  Level FlightAware Approximate
Mon 09:49:31 PM 38.6797 -83.7314 265° West 465 535 40,000  Level Indianapolis Center
Mon 09:50:33 PM 38.6714 -83.9008 266° West 471 542 40,000  Level Indianapolis Center
Mon 09:51:34 PM 38.6619 -84.0686 266° West 470 541 40,000  Level Indianapolis Center
Mon 09:52:35 PM 38.6528 -84.2656 267° West 471 542 40,000  Level Indianapolis Center
Mon 09:53:36 PM 38.6572 -84.4336 272° West 469 540 40,000  Level Indianapolis Center
Mon 09:54:38 PM 38.6775 -84.5842 280° West 463 533 40,000  Level Indianapolis Center
Mon 09:55:39 PM 38.7103 -84.7464 285° West 467 537 40,000  Level Indianapolis Center
Mon 09:57:41 PM 38.7767 -85.0650 285° West 464 534 40,000  Level Indianapolis Center
Mon 09:58:42 PM 38.8106 -85.2242 285° West 464 534 40,000  Level Indianapolis Center
Mon 09:59:44 PM 38.8519 -85.4131 286° West 461 531 40,000  Level Indianapolis Center
Mon 10:00:45 PM 38.8653 -85.5744 276° West 458 527 40,000  Level Indianapolis Center
Mon 10:01:46 PM 38.8556 -85.7378 266° West 460 529 40,000  Level Indianapolis Center
Mon 10:02:47 PM 38.8467 -85.9042 266° West 458 527 40,000  Level Indianapolis Center
Mon 10:03:48 PM 38.8372 -86.0661 266° West 456 525 40,000  Level Indianapolis Center
Mon 10:04:49 PM 38.8281 -86.2264 266° West 452 520 40,000  Level Indianapolis Center
Mon 10:05:50 PM 38.8186 -86.3883 266° West 454 522 40,000  Level Indianapolis Center
Mon 10:06:52 PM 38.8094 -86.5492 266° West 453 521 40,000  Level Indianapolis Center
Mon 10:07:53 PM 38.7994 -86.7094 265° West 451 519 40,000  Level Indianapolis Center
Mon 10:08:54 PM 38.7894 -86.8700 265° West 454 522 40,000  Level Indianapolis Center
Mon 10:09:55 PM 38.7800 -87.0297 266° West 453 521 40,000  Level Indianapolis Center
Mon 10:10:56 PM 38.7694 -87.1900 265° West 453 521 40,000  Level Indianapolis Center
Mon 10:12:55 PM 38.7478 -87.5119 265° West 452 520 40,000  Level Kansas City Center
Mon 10:13:59 PM 38.7350 -87.7017 265° West 451 519 40,000  Level Indianapolis Center
Mon 10:15:00 PM 38.7239 -87.8619 265° West 453 521 40,000  Level Indianapolis Center
Mon 10:15:58 PM 38.7119 -88.0206 265° West 449 517 40,000  Level Kansas City Center
Mon 10:16:59 PM 38.7003 -88.1783 265° West 446 513 40,000  Level Kansas City Center
Mon 10:18:00 PM 38.6894 -88.3353 265° West 444 511 40,000  Level Kansas City Center
Mon 10:19:02 PM 38.6769 -88.4925 264° West 443 510 40,000  Level Kansas City Center
Mon 10:20:03 PM 38.6661 -88.6494 265° West 443 510 40,000  Level Kansas City Center
Mon 10:21:04 PM 38.6531 -88.7958 264° West 444 511 40,000  Level Kansas City Center
Mon 10:22:05 PM 38.6419 -88.9533 265° West 446 513 40,000  Level Kansas City Center
Mon 10:23:06 PM 38.6278 -89.1347 264° West 448 516 40,000  Level Kansas City Center
Mon 10:24:07 PM 38.6150 -89.2919 264° West 447 514 40,000  Level Kansas City Center
Mon 10:25:08 PM 38.6006 -89.4633 264° West 451 519 40,000  Level Kansas City Center
Mon 10:26:09 PM 38.5875 -89.6225 264° West 452 520 40,000  Level Kansas City Center
Mon 10:27:10 PM 38.5747 -89.7800 264° West 452 520 40,000  Level Kansas City Center
Mon 10:28:11 PM 38.5603 -89.9364 263° West 447 514 40,000  Level Kansas City Center
Mon 10:29:12 PM 38.5456 -90.0922 263° West 442 509 40,000  Level Kansas City Center
Mon 10:31:15 PM 38.5156 -90.4139 263° West 437 503 40,000  Level Kansas City Center
Mon 10:32:16 PM 38.5022 -90.5661 264° West 433 498 40,000  Level Kansas City Center
Mon 10:33:17 PM 38.4875 -90.7144 263° West 434 499 40,000  Level Kansas City Center
Mon 10:34:18 PM 38.4728 -90.8667 263° West 433 498 40,000  Level Kansas City Center
Mon 10:35:19 PM 38.4589 -91.0175 263° West 431 496 40,000  Level Kansas City Center
Mon 10:36:20 PM 38.4436 -91.1689 263° West 432 497 40,000  Level Kansas City Center
Mon 10:37:21 PM 38.4297 -91.3206 263° West 432 497 40,000  Level Kansas City Center
Mon 10:38:22 PM 38.4147 -91.4758 263° West 428 493 40,000  Level Kansas City Center
Mon 10:39:23 PM 38.3981 -91.6261 262° West 430 495 40,000  Level Kansas City Center
Mon 10:40:24 PM 38.3839 -91.7753 263° West 428 493 40,000  Level Kansas City Center
Mon 10:41:25 PM 38.3681 -91.9233 262° West 425 489 40,000  Level Kansas City Center
Mon 10:42:26 PM 38.3486 -92.1033 262° West 428 493 40,000  Level Kansas City Center
Mon 10:43:27 PM 38.3314 -92.2525 262° West 429 494 40,000  Level Kansas City Center
Mon 10:44:28 PM 38.3153 -92.4006 262° West 429 494 40,000  Level Kansas City Center
Mon 10:45:29 PM 38.2992 -92.5483 262° West 426 490 40,000  Level Kansas City Center
Mon 10:47:00 PM 38.2614 -92.7674 258° West  Level FlightAware Approximate
Mon 10:47:31 PM 38.2653 -92.8508 258° West 433 498 40,000  Level Kansas City Center
Mon 10:48:31 PM 38.2489 -93.0019 262° West 433 498 40,000  Level Kansas City Center
Mon 10:49:32 PM 38.2308 -93.1522 261° West 431 496 40,000  Level Kansas City Center
Mon 10:50:33 PM 38.2133 -93.3017 262° West 429 494 40,000  Level Kansas City Center
Mon 10:51:34 PM 38.1956 -93.4511 261° West 429 494 40,000  Level Kansas City Center
Mon 10:52:35 PM 38.1781 -93.6008 262° West 428 493 40,000  Level Kansas City Center
Mon 10:53:36 PM 38.1600 -93.7489 261° West 426 490 40,000  Level Kansas City Center
Mon 10:54:37 PM 38.1375 -93.9258 261° West 423 487 40,000  Level Kansas City Center
Mon 10:55:38 PM 38.1206 -94.0700 262° West 417 480 40,000  Level Kansas City Center
Mon 10:56:39 PM 38.1025 -94.2111 261° West 415 478 40,000  Level Kansas City Center
Mon 10:57:40 PM 38.0847 -94.3506 261° West 416 479 40,000  Level Kansas City Center
Mon 10:58:41 PM 38.0664 -94.4894 261° West 416 479 40,000  Level Kansas City Center
Mon 10:59:42 PM 38.0453 -94.6514 261° West 416 479 40,000  Level Kansas City Center
Mon 11:00:42 PM 38.0275 -94.7908 261° West 418 481 40,000  Level Kansas City Center
Mon 11:01:43 PM 38.0092 -94.9286 260° West 415 478 40,000  Level Kansas City Center
Mon 11:02:44 PM 37.9875 -95.0897 260° West 414 476 40,000  Level Kansas City Center
Mon 11:03:45 PM 37.9692 -95.2331 261° West 421 484 40,000  Level Kansas City Center
Mon 11:04:46 PM 37.9497 -95.3736 260° West 421 484 40,000  Level Kansas City Center
Mon 11:05:47 PM 37.9275 -95.5358 260° West 418 481 40,000  Level Kansas City Center
Mon 11:06:48 PM 37.9072 -95.6803 260° West 416 479 40,000  Level Kansas City Center
Mon 11:07:49 PM 37.8867 -95.8294 260° West 424 488 40,000  Level Kansas City Center
Mon 11:08:50 PM 37.8650 -95.9789 260° West 430 495 40,000  Level Kansas City Center
Mon 11:09:51 PM 37.8442 -96.1258 260° West 424 488 40,000  Level Kansas City Center
Mon 11:10:52 PM 37.8242 -96.2731 260° West 425 489 40,000  Level Kansas City Center
Mon 11:11:53 PM 37.8028 -96.4186 260° West 422 486 40,000  Level Kansas City Center
Mon 11:12:53 PM 37.7817 -96.5631 260° West 419 482 40,000  Level Kansas City Center
Mon 11:13:54 PM 37.7603 -96.7061 259° West 415 478 40,000  Level Kansas City Center
Mon 11:14:55 PM 37.7389 -96.8492 259° West 415 478 40,000  Level Kansas City Center
Mon 11:15:56 PM 37.7175 -96.9917 259° West 415 478 40,000  Level Kansas City Center
Mon 11:16:57 PM 37.6961 -97.1344 259° West 413 475 40,000  Level Kansas City Center
Mon 11:17:58 PM 37.6739 -97.2792 259° West 417 480 40,000  Level Kansas City Center
Mon 11:18:59 PM 37.6506 -97.4228 258° West 417 480 40,000  Level Kansas City Center
Mon 11:20:00 PM 37.6094 -97.5640 250° West  Level FlightAware Approximate
Mon 11:20:00 PM 37.6283 -97.5689 250° West 420 483 40,000  Level Kansas City Center
Mon 11:21:01 PM 37.6056 -97.7147 259° West 420 483 40,000  Level Kansas City Center
Mon 11:22:02 PM 37.5817 -97.8597 258° West 418 481 40,000  Level Kansas City Center
Mon 11:23:03 PM 37.5592 -98.0028 259° West 414 476 40,000  Level Kansas City Center
Mon 11:24:04 PM 37.5367 -98.1458 259° West 414 476 40,000  Level Kansas City Center
Mon 11:25:04 PM 37.5081 -98.3164 258° West 412 474 40,000  Level Kansas City Center
Mon 11:26:05 PM 37.4853 -98.4592 259° West 415 478 40,000  Level Kansas City Center
Mon 11:27:06 PM 37.4608 -98.6019 258° West 415 478 40,000  Level Kansas City Center
Mon 11:28:07 PM 37.4381 -98.7478 259° West 421 484 40,000  Level Kansas City Center
Mon 11:29:08 PM 37.4133 -98.8886 258° West 417 480 40,000  Level Kansas City Center
Mon 11:30:09 PM 37.3892 -99.0306 258° West 415 478 40,000  Level Kansas City Center
Mon 11:31:10 PM 37.3639 -99.1711 257° West 413 475 40,000  Level Kansas City Center
Mon 11:32:11 PM 37.3400 -99.3133 258° West 415 478 40,000  Level Kansas City Center
Mon 11:33:12 PM 37.3100 -99.4614 256° West 416 479 40,000  Level Kansas City Center
Mon 11:34:13 PM 37.2844 -99.5961 257° West 416 479 40,000  Level Kansas City Center
Mon 11:35:14 PM 37.2550 -99.7544 257° West 416 479 40,000  Level Kansas City Center
Mon 11:36:15 PM 37.2278 -99.8903 256° West 418 481 40,000  Level Kansas City Center
Mon 11:37:16 PM 37.1989 -100.0275 255° West 422 486 40,000  Level Kansas City Center
Mon 11:38:17 PM 37.1678 -100.1861 256° West 421 484 40,000  Level Kansas City Center
Mon 11:39:17 PM 37.1406 -100.3242 256° West 422 486 40,000  Level Kansas City Center
Mon 11:40:18 PM 37.1131 -100.4617 256° West 422 486 40,000  Level Kansas City Center
Mon 11:41:19 PM 37.0806 -100.6211 256° West 421 484 40,000  Level Kansas City Center
Mon 11:42:20 PM 37.0514 -100.7594 255° West 425 489 40,000  Level Kansas City Center
Mon 11:43:21 PM 37.0222 -100.8967 255° West 425 489 40,000  Level Kansas City Center
Mon 11:44:22 PM 36.9897 -101.0569 256° West 425 489 40,000  Level Kansas City Center
Mon 11:45:23 PM 36.9600 -101.1944 255° West 426 490 40,000  Level Kansas City Center
Mon 11:46:24 PM 36.9314 -101.3306 255° West 424 488 40,000  Level Kansas City Center
Mon 11:47:25 PM 36.8975 -101.4894 255° West 424 488 40,000  Level Kansas City Center
Mon 11:48:26 PM 36.8689 -101.6250 255° West 422 486 40,000  Level Kansas City Center
Mon 11:49:26 PM 36.8383 -101.7611 254° West 424 488 40,000  Level Kansas City Center
Mon 11:50:27 PM 36.8039 -101.9197 255° West 424 488 40,000  Level Kansas City Center
Mon 11:51:28 PM 36.7744 -102.0550 255° West 423 487 40,000  Level Kansas City Center
Mon 11:52:29 PM 36.7453 -102.1903 255° West 422 486 40,000  Level Kansas City Center
Mon 11:53:30 PM 36.7094 -102.3500 254° West 426 490 40,000  Level Kansas City Center
Mon 11:54:31 PM 36.6778 -102.4869 254° West 429 494 40,000  Level Kansas City Center
Mon 11:55:42 PM 36.6414 -102.6561 255° West 433 498 40,000  Level Albuquerque Center
Mon 11:56:43 PM 36.6042 -102.8144 254° West 428 493 40,000  Level Albuquerque Center
Mon 11:57:44 PM 36.5731 -102.9547 255° West 431 496 40,000  Level Albuquerque Center
Mon 11:58:45 PM 36.5403 -103.0983 254° West 429 494 40,000  Level Albuquerque Center
Mon 11:59:46 PM 36.5078 -103.2400 254° West 425 489 40,000  Level Albuquerque Center
Tue 12:00:47 AM 36.4758 -103.3806 254° West 422 486 40,000  Level Albuquerque Center
Tue 12:01:48 AM 36.4433 -103.5200 254° West 420 483 40,000  Level Albuquerque Center
Tue 12:02:50 AM 36.4108 -103.6567 254° West 413 475 40,000  Level Albuquerque Center
Tue 12:03:50 AM 36.3781 -103.7942 254° West 412 474 40,000  Level Albuquerque Center
Tue 12:04:51 AM 36.3453 -103.9325 254° West 414 476 40,000  Level Albuquerque Center
Tue 12:05:52 AM 36.3125 -104.0714 254° West 416 479 40,000  Level Albuquerque Center
Tue 12:06:53 AM 36.2792 -104.2081 253° West 414 476 40,000  Level Albuquerque Center
Tue 12:07:54 AM 36.2447 -104.3439 253° West 413 475 40,000  Level Albuquerque Center
Tue 12:08:55 AM 36.2122 -104.4800 254° West 411 473 40,000 49 Level Albuquerque Center
Tue 12:09:56 AM 36.1808 -104.6119 254° West 402 463 40,100  Climbing Albuquerque Center
Tue 12:10:57 AM 36.1469 -104.7461 253° West 404 465 40,000 -49 Descending Albuquerque Center
Tue 12:11:58 AM 36.1097 -104.8989 253° West 401 461 40,000  Level Albuquerque Center
Tue 12:12:59 AM 36.0764 -105.0297 253° West 399 459 40,000  Level Albuquerque Center
Tue 12:14:00 AM 36.0444 -105.1619 253° West 399 459 40,000  Level Albuquerque Center
Tue 12:15:01 AM 36.0094 -105.2953 252° West 404 465 40,000  Level Albuquerque Center
Tue 12:16:02 AM 35.9761 -105.4272 253° West 402 463 40,000  Level Albuquerque Center
Tue 12:17:03 AM 35.9461 -105.5478 253° West 399 459 40,000  Level Albuquerque Center
Tue 12:18:04 AM 35.9147 -105.6775 253° West 396 456 40,000  Level Albuquerque Center
Tue 12:19:05 AM 35.8800 -105.8069 252° West 399 459 40,000  Level Albuquerque Center
Tue 12:20:05 AM 35.8458 -105.9381 252° West 402 463 40,000  Level Albuquerque Center
Tue 12:21:06 AM 35.8111 -106.0697 252° West 405 466 40,000  Level Albuquerque Center
Tue 12:22:07 AM 35.7756 -106.2125 253° West 405 466 40,000  Level Albuquerque Center
Tue 12:23:08 AM 35.7403 -106.3558 253° West 395 455 40,000  Level Albuquerque Center
Tue 12:24:09 AM 35.7067 -106.4781 251° West 393 452 40,000  Level Albuquerque Center
Tue 12:25:10 AM 35.6753 -106.6006 253° West 394 453 40,000  Level Albuquerque Center
Tue 12:26:10 AM 35.6392 -106.7364 252° West 395 455 40,000  Level Albuquerque Center
Tue 12:27:11 AM 35.6047 -106.8633 252° West 396 456 40,000  Level Albuquerque Center
Tue 12:28:12 AM 35.5686 -106.9919 251° West 399 459 40,000  Level Albuquerque Center
Tue 12:29:13 AM 35.5275 -107.1144 248° West 396 456 40,000  Level Albuquerque Center
Tue 12:30:14 AM 35.4842 -107.2453 248° West 387 445 40,000  Level Albuquerque Center
Tue 12:31:14 AM 35.4461 -107.3597 248° West 381 438 40,000  Level Albuquerque Center
Tue 12:32:15 AM 35.4014 -107.4944 248° West 381 438 40,000  Level Albuquerque Center
Tue 12:33:16 AM 35.3619 -107.6128 248° West 387 445 40,000  Level Albuquerque Center
Tue 12:34:17 AM 35.3231 -107.7303 248° West 388 447 40,000  Level Albuquerque Center
Tue 12:35:17 AM 35.2758 -107.8678 247° West 391 450 40,000  Level Albuquerque Center
Tue 12:36:18 AM 35.2369 -107.9850 248° West 390 449 40,000  Level Albuquerque Center
Tue 12:37:19 AM 35.1986 -108.1003 248° West 385 443 40,000  Level Albuquerque Center
Tue 12:38:20 AM 35.1522 -108.2347 247° West 384 442 40,000  Level Albuquerque Center
Tue 12:39:20 AM 35.1119 -108.3517 247° West 387 445 40,000  Level Albuquerque Center
Tue 12:40:21 AM 35.0722 -108.4692 248° West 389 448 40,000  Level Albuquerque Center
Tue 12:41:22 AM 35.0233 -108.6114 247° West 400 460 40,000  Level Albuquerque Center
Tue 12:42:22 AM 34.9819 -108.7289 247° West 396 456 40,000  Level Albuquerque Center
Tue 12:43:23 AM 34.9417 -108.8461 247° West 392 451 40,000  Level Albuquerque Center
Tue 12:44:24 AM 34.9000 -108.9622 246° West 390 449 40,000  Level Albuquerque Center
Tue 12:45:24 AM 34.8533 -109.0989 247° West 392 451 40,000  Level Albuquerque Center
Tue 12:46:25 AM 34.8114 -109.2178 247° West 395 455 40,000  Level Albuquerque Center
Tue 12:47:26 AM 34.7658 -109.3347 245° Southwest 397 457 40,000  Level Albuquerque Center
Tue 12:48:26 AM 34.7100 -109.4661 243° Southwest 394 453 40,000  Level Albuquerque Center
Tue 12:49:27 AM 34.6608 -109.5772 242° Southwest 391 450 40,000  Level Albuquerque Center
Tue 12:50:28 AM 34.6133 -109.6933 244° Southwest 397 457 40,000  Level Albuquerque Center
Tue 12:51:28 AM 34.5572 -109.8281 243° Southwest 399 459 40,000  Level Albuquerque Center
Tue 12:52:29 AM 34.5083 -109.9433 243° Southwest 401 461 40,000  Level Albuquerque Center
Tue 12:53:29 AM 34.4603 -110.0594 243° Southwest 402 463 40,000 -893 Level Albuquerque Center
Tue 12:54:30 AM 34.4058 -110.1881 243° Southwest 390 449 38,200 -2,115 Descending Albuquerque Center
Tue 12:55:31 AM 34.3594 -110.2958 242° Southwest 381 438 35,700 -2,628 Descending Albuquerque Center
Tue 12:56:31 AM 34.3119 -110.4156 244° Southwest 385 443 32,900 -2,430 Descending Albuquerque Center
Tue 12:57:32 AM 34.2656 -110.5150 241° Southwest 378 435 30,800 -2,083 Descending Albuquerque Center
Tue 12:58:32 AM 34.2194 -110.6228 243° Southwest 367 422 28,700 -2,231 Descending Albuquerque Center
Tue 12:59:33 AM 34.1706 -110.7369 243° Southwest 357 411 26,300 -2,262 Descending Albuquerque Center
Tue 01:00:34 AM 34.1264 -110.8381 242° Southwest 345 397 24,100 -2,132 Descending Albuquerque Center
Tue 01:01:34 AM 34.0853 -110.9350 243° Southwest 333 383 22,000 -2,033 Descending Albuquerque Center
Tue 01:02:35 AM 34.0447 -111.0292 243° Southwest 321 369 20,000 -1,934 Descending Albuquerque Center
Tue 01:03:35 AM 34.0056 -111.1211 243° Southwest 312 359 18,100 -1,983 Descending Albuquerque Center
Tue 01:04:36 AM 33.9658 -111.2114 242° Southwest 308 354 16,000 -1,983 Descending Albuquerque Center
Tue 01:05:36 AM 33.9286 -111.2992 243° Southwest 298 343 14,100 -1,686 Descending Albuquerque Center
Tue 01:06:37 AM 33.8900 -111.3872 242° Southwest 297 342 12,600 -1,475 Descending Albuquerque Center
Tue 01:07:38 AM 33.8347 -111.4467 222° Southwest 274 315 11,100 -942 Descending Albuquerque Center
Tue 01:08:38 AM 33.7767 -111.4944 214° Southwest 256 295 10,700 -694 Descending Albuquerque Center
Tue 01:09:39 AM 33.7264 -111.5394 217° Southwest 232 267 9,700 -1,091 Descending Albuquerque Center
Tue 01:10:39 AM 33.6750 -111.5828 215° Southwest 226 260 8,500 -1,041 Descending Albuquerque Center
Tue 01:11:40 AM 33.6253 -111.6286 218° Southwest 225 259 7,600 -934 Descending Albuquerque Center
Tue 01:12:41 AM 33.5836 -111.6825 227° Southwest 221 254 6,600 -992 Descending Albuquerque Center
Tue 01:13:41 AM 33.5419 -111.7342 226° Southwest 217 250 5,600 -942 Descending Albuquerque Center
Tue 01:14:42 AM 33.5044 -111.7878 230° Southwest 213 245 4,700 -545 Descending Albuquerque Center
Tue 01:15:42 AM 33.4697 -111.8383 231° Southwest 206 237 4,500 -694 Descending Albuquerque Center
Tue 01:16:43 AM 33.4467 -111.8717 230° Southwest 159 183 3,300 -1,041 Descending Albuquerque Center
Tue 01:17:43 AM 33.4303 -111.9094 243° Southwest 140 161 2,400 -744 Descending Albuquerque Center
Tue 01:18:44 AM 33.4325 -111.9525 274° West 131 151 1,800 -443 Descending Albuquerque Center
Tue 01:19:45 AM 33.4336 -112.0042 271° West 130 150 1,500 -295 Descending Albuquerque Center
Tue 01:21:00 AM 33.4333 -112.0000 251° West  Level FlightAware Approximate

Login

Don't have an account? Register now (free) for customized features, flight alerts, and more!